createdAt,value
2019-06-10T00:02:10.908Z,62.37
2019-06-10T00:04:43.471Z,62.67
2019-06-10T00:07:16.715Z,62.83
2019-06-10T00:09:51.150Z,62.96
2019-06-10T00:12:24.217Z,62.90
2019-06-10T00:14:58.656Z,62.87
2019-06-10T00:17:31.889Z,62.78
2019-06-10T00:20:08.361Z,62.74
2019-06-10T00:22:42.735Z,62.69
2019-06-10T00:25:15.829Z,62.85
2019-06-10T00:27:51.071Z,63.04
2019-06-10T00:30:23.844Z,62.95
2019-06-10T00:32:58.509Z,62.95
2019-06-10T00:35:31.573Z,63.02
2019-06-10T00:38:07.259Z,63.25
2019-06-10T00:40:41.637Z,63.46
2019-06-10T00:43:13.727Z,63.64
2019-06-10T00:45:47.924Z,63.62
2019-06-10T00:48:26.179Z,63.64
2019-06-10T00:50:56.294Z,63.72
2019-06-10T00:53:31.630Z,63.80
2019-06-10T00:56:05.632Z,63.87
2019-06-10T00:58:40.816Z,63.98
2019-06-10T01:01:14.739Z,64.00
2019-06-10T01:03:47.748Z,64.08
2019-06-10T01:06:21.539Z,64.24
2019-06-10T01:08:55.679Z,64.58
2019-06-10T01:11:31.036Z,64.96
2019-06-10T01:14:03.413Z,65.19
2019-06-10T01:16:36.720Z,65.67
2019-06-10T01:19:12.444Z,65.83
2019-06-10T01:21:44.690Z,66.23
2019-06-10T01:24:18.192Z,66.35
2019-06-10T01:26:51.535Z,66.26
2019-06-10T01:29:24.813Z,66.17
2019-06-10T01:31:58.128Z,66.11
2019-06-10T01:34:31.407Z,66.15
2019-06-10T01:37:04.724Z,66.15
2019-06-10T01:39:37.989Z,66.28
2019-06-10T01:42:12.822Z,66.40
2019-06-10T01:44:46.220Z,66.57
2019-06-10T01:47:21.577Z,66.66
2019-06-10T01:49:54.567Z,66.64
2019-06-10T01:52:27.880Z,66.73
2019-06-10T01:55:01.653Z,66.71
2019-06-10T01:57:34.935Z,66.69
2019-06-10T02:00:09.930Z,66.73
2019-06-10T02:02:44.898Z,66.79
2019-06-10T02:05:19.423Z,66.80
2019-06-10T02:07:52.766Z,66.71
2019-06-10T02:10:26.029Z,66.71
2019-06-10T02:13:01.280Z,66.73
2019-06-10T02:15:33.664Z,66.68
2019-06-10T02:18:06.961Z,66.56
2019-06-10T02:20:41.246Z,66.49
2019-06-10T02:23:15.522Z,66.29
2019-06-10T02:25:51.175Z,66.14
2019-06-10T02:28:24.244Z,66.06
2019-06-10T02:30:57.517Z,65.93
2019-06-10T02:33:36.057Z,65.90
2019-06-10T02:36:05.201Z,65.90
2019-06-10T02:38:39.829Z,65.76
2019-06-10T02:41:17.457Z,65.71
2019-06-10T02:43:47.791Z,65.56
2019-06-10T02:46:28.486Z,65.39
2019-06-10T02:48:55.714Z,65.30
2019-06-10T02:51:31.452Z,65.23
2019-06-10T02:54:04.755Z,65.25
2019-06-10T02:56:37.874Z,65.21
2019-06-10T02:59:13.226Z,65.17
2019-06-10T03:01:45.841Z,65.03
2019-06-10T03:04:22.193Z,64.93
2019-06-10T03:06:54.426Z,64.84
2019-06-10T03:09:31.913Z,64.64
2019-06-10T03:12:04.616Z,64.30
2019-06-10T03:14:36.412Z,63.87
2019-06-10T03:17:12.464Z,63.39
2019-06-10T03:19:50.338Z,63.06
2019-06-10T03:22:22.587Z,62.75
2019-06-10T03:24:54.541Z,62.36
2019-06-10T03:27:28.075Z,61.99
2019-06-10T03:30:04.818Z,61.46
2019-06-10T03:32:40.974Z,60.89
2019-06-10T03:35:12.987Z,60.13
2019-06-10T03:37:45.810Z,59.62
2019-06-10T03:40:19.142Z,58.25
2019-06-10T03:42:52.521Z,56.39
2019-06-10T03:45:27.196Z,55.28
2019-06-10T03:48:00.121Z,54.09
2019-06-10T03:50:33.437Z,52.42
2019-06-10T03:53:06.710Z,50.52
2019-06-10T03:55:42.236Z,49.56
2019-06-10T03:58:14.383Z,48.38
2019-06-10T04:00:47.750Z,47.13
2019-06-10T04:03:23.810Z,46.25
